Time;durP1;ratioP1;P1;durP2;ratioP2;P2;SDS_P1;SDS_P2;PMS_P1;PMS_P2;Temp;Humidity;BMP_temperature;BMP_pressure;BME280_temperature;BME280_humidity;BME280_pressure;Samples;Min_cycle;Max_cycle;Signal;HPM_P1;HPM_P2
2021/11/08 00:01:51;;;;;;;16.52;11.68;;;12.00;82.30;;;;;;4945902;28;20412;-62
2021/11/08 00:04:17;;;;;;;14.25;11.23;;;11.90;82.40;;;;;;4942417;29;20031;-62
2021/11/08 00:06:44;;;;;;;14.15;10.48;;;11.90;82.60;;;;;;4954425;28;20379;-62
2021/11/08 00:09:10;;;;;;;15.07;11.93;;;11.90;82.70;;;;;;4935768;28;20059;-62
2021/11/08 00:11:38;;;;;;;12.25;9.70;;;11.90;82.90;;;;;;4935925;29;20032;-62
2021/11/08 00:14:06;;;;;;;13.88;10.20;;;11.80;82.90;;;;;;4936072;29;20046;-62
2021/11/08 00:16:40;;;;;;;13.23;10.27;;;11.80;83.00;;;;;;4935884;29;20024;-62
2021/11/08 00:21:35;;;;;;;17.23;12.73;;;11.80;83.20;;;;;;4942469;29;20561;-62
2021/11/08 00:24:02;;;;;;;17.50;12.23;;;11.80;83.40;;;;;;4939169;28;20058;-62
2021/11/08 00:26:28;;;;;;;16.75;13.55;;;11.80;83.50;;;;;;4935990;29;20491;-62
2021/11/08 00:28:54;;;;;;;14.80;11.23;;;11.80;83.60;;;;;;4935566;29;20036;-62
2021/11/08 00:31:20;;;;;;;15.70;12.50;;;11.90;83.70;;;;;;4935687;29;20472;-62
2021/11/08 00:33:46;;;;;;;14.73;11.90;;;11.80;83.60;;;;;;4935616;29;20024;-62
2021/11/08 00:36:12;;;;;;;16.30;11.57;;;11.90;83.80;;;;;;4935662;29;20374;-62
2021/11/08 00:38:38;;;;;;;14.48;12.00;;;11.90;83.90;;;;;;4935276;29;20047;-62
2021/11/08 00:41:04;;;;;;;15.63;11.70;;;11.90;83.90;;;;;;4945727;28;20035;-62
2021/11/08 00:43:30;;;;;;;13.45;10.02;;;11.90;83.90;;;;;;4937448;28;20079;-62
2021/11/08 00:45:56;;;;;;;15.15;11.40;;;11.90;83.90;;;;;;4935611;29;20424;-62
2021/11/08 00:48:25;;;;;;;15.27;11.73;;;11.80;83.90;;;;;;4937792;29;20030;-62
2021/11/08 00:50:53;;;;;;;15.90;12.30;;;11.80;84.00;;;;;;4935918;29;20044;-62
2021/11/08 00:53:19;;;;;;;15.50;12.88;;;11.80;84.80;;;;;;4937241;29;20119;-62
2021/11/08 00:55:45;;;;;;;17.27;12.60;;;11.90;84.40;;;;;;4953927;29;20102;-62
2021/11/08 00:58:19;;;;;;;19.10;13.98;;;11.90;84.50;;;;;;4947616;28;20032;-62
2021/11/08 01:00:45;;;;;;;18.17;13.70;;;11.90;84.70;;;;;;4935637;29;20032;-62
2021/11/08 01:03:14;;;;;;;16.58;12.95;;;11.90;84.80;;;;;;4935344;29;20473;-62
2021/11/08 01:05:40;;;;;;;18.52;13.45;;;11.90;84.80;;;;;;4948426;29;20553;-62
2021/11/08 01:08:06;;;;;;;16.27;13.65;;;11.90;84.80;;;;;;4935619;29;20114;-62
2021/11/08 01:10:32;;;;;;;17.10;12.98;;;11.90;84.70;;;;;;4935261;28;20491;-62
2021/11/08 01:12:57;;;;;;;17.55;12.48;;;12.00;84.80;;;;;;4935602;29;20082;-62
2021/11/08 01:15:24;;;;;;;17.25;13.20;;;12.00;84.70;;;;;;4937738;28;20384;-62
2021/11/08 01:17:51;;;;;;;16.65;12.85;;;12.00;84.80;;;;;;4948583;28;20028;-62
2021/11/08 01:20:17;;;;;;;16.77;13.30;;;12.00;84.80;;;;;;4939231;29;20035;-62
2021/11/08 01:22:42;;;;;;;16.73;12.45;;;12.00;84.80;;;;;;4952206;29;20436;-62
2021/11/08 01:25:10;;;;;;;18.05;12.43;;;12.00;84.80;;;;;;4953903;29;20038;-62
2021/11/08 01:27:49;;;;;;;17.23;12.57;;;12.00;84.90;;;;;;4938831;29;20110;-62
2021/11/08 01:30:20;;;;;;;16.27;12.40;;;12.10;84.90;;;;;;4939014;29;20375;-62
2021/11/08 01:35:38;;;;;;;15.88;12.73;;;12.10;84.90;;;;;;4939012;29;20082;-62
2021/11/08 01:40:43;;;;;;;15.30;12.85;;;12.10;85.00;;;;;;4947553;28;20102;-62
2021/11/08 01:43:11;;;;;;;18.20;13.90;;;12.10;85.10;;;;;;4937679;28;20032;-62
2021/11/08 01:45:37;;;;;;;18.70;13.13;;;12.10;85.10;;;;;;4948022;29;20032;-62
2021/11/08 01:48:04;;;;;;;16.33;12.32;;;12.10;85.10;;;;;;4939698;28;20035;-62
2021/11/08 01:50:31;;;;;;;15.82;12.80;;;12.10;85.20;;;;;;4941265;28;20051;-62
2021/11/08 01:52:57;;;;;;;21.75;13.82;;;12.10;85.30;;;;;;4945751;29;20027;-62
2021/11/08 01:55:24;;;;;;;17.55;13.38;;;12.10;85.40;;;;;;4939188;28;20024;-62
2021/11/08 01:57:50;;;;;;;16.08;13.52;;;12.10;86.00;;;;;;4947377;29;20050;-62
2021/11/08 02:00:18;;;;;;;19.13;13.90;;;12.10;85.30;;;;;;4957112;28;20499;-62
2021/11/08 02:02:44;;;;;;;18.58;13.70;;;12.10;85.20;;;;;;4957210;28;20078;-62
2021/11/08 02:05:10;;;;;;;21.10;14.32;;;12.10;85.00;;;;;;4948662;28;20039;-62
2021/11/08 02:07:37;;;;;;;17.67;13.93;;;12.10;85.00;;;;;;4940118;28;20064;-62
2021/11/08 02:10:07;;;;;;;17.33;13.73;;;12.10;84.90;;;;;;4938240;29;20110;-62
2021/11/08 02:12:32;;;;;;;18.85;13.73;;;12.10;84.80;;;;;;4938197;29;20027;-62
2021/11/08 02:15:00;;;;;;;20.40;14.38;;;12.00;84.60;;;;;;4947789;28;20031;-62
2021/11/08 02:17:29;;;;;;;20.15;15.50;;;12.00;84.60;;;;;;4951497;28;20075;-62
2021/11/08 02:20:11;;;;;;;22.60;15.70;;;12.00;84.60;;;;;;4936388;29;20032;-62
2021/11/08 02:22:37;;;;;;;20.83;16.88;;;11.90;84.70;;;;;;4943265;28;20035;-62
2021/11/08 02:25:03;;;;;;;26.25;15.65;;;11.90;84.80;;;;;;4945111;28;20354;-62
2021/11/08 02:27:29;;;;;;;18.42;15.55;;;11.80;85.00;;;;;;4937689;28;20027;-62
2021/11/08 02:29:55;;;;;;;20.35;14.82;;;11.80;85.20;;;;;;4936777;29;20035;-62
2021/11/08 02:32:21;;;;;;;20.73;15.70;;;11.80;85.30;;;;;;4938075;29;20837;-62
2021/11/08 02:34:46;;;;;;;21.70;16.00;;;11.80;85.30;;;;;;4937612;29;20036;-62
2021/11/08 02:37:13;;;;;;;17.92;14.85;;;11.70;85.20;;;;;;4937756;29;20086;-62
2021/11/08 02:39:41;;;;;;;18.63;15.80;;;11.70;85.30;;;;;;4943656;28;20051;-62
2021/11/08 02:42:07;;;;;;;18.92;15.45;;;11.70;85.40;;;;;;4939117;28;20388;-62
2021/11/08 02:44:33;;;;;;;20.38;15.25;;;11.70;85.50;;;;;;4937001;29;20034;-62
2021/11/08 02:46:59;;;;;;;19.55;15.40;;;11.70;85.80;;;;;;4949546;28;20118;-62
2021/11/08 02:49:31;;;;;;;23.35;14.50;;;11.70;85.80;;;;;;4941720;29;20087;-62
2021/11/08 02:52:05;;;;;;;22.05;14.48;;;11.60;86.10;;;;;;4937858;29;20035;-62
2021/11/08 02:54:43;;;;;;;20.17;14.38;;;11.60;86.40;;;;;;4937182;29;20035;-62
2021/11/08 02:57:09;;;;;;;23.50;16.05;;;11.60;86.50;;;;;;4947945;28;20415;-62
2021/11/08 02:59:37;;;;;;;18.35;14.95;;;11.60;86.60;;;;;;4943092;28;20111;-62
2021/11/08 03:02:04;;;;;;;17.98;13.82;;;11.60;86.70;;;;;;4950183;28;20164;-62
2021/11/08 03:04:34;;;;;;;23.77;15.98;;;11.60;86.80;;;;;;4953747;28;20303;-62
2021/11/08 03:07:00;;;;;;;17.63;13.45;;;11.60;87.00;;;;;;4956140;28;20462;-62
2021/11/08 03:09:43;;;;;;;21.13;15.52;;;11.60;87.10;;;;;;4956595;28;20027;-62
2021/11/08 03:12:18;;;;;;;19.45;15.43;;;11.60;87.10;;;;;;4956108;28;20031;-62
2021/11/08 03:15:00;;;;;;;19.27;14.70;;;11.60;87.30;;;;;;4947988;28;20501;-62
2021/11/08 03:17:32;;;;;;;19.15;15.18;;;11.50;87.40;;;;;;4943283;28;20020;-62
2021/11/08 03:19:58;;;;;;;21.35;15.23;;;11.50;87.60;;;;;;4948960;28;20031;-61
2021/11/08 03:22:30;;;;;;;22.45;16.27;;;11.50;87.80;;;;;;4942725;28;20091;-62
2021/11/08 03:25:00;;;;;;;22.65;15.32;;;11.50;87.80;;;;;;4936711;29;20051;-62
2021/11/08 03:30:00;;;;;;;23.48;15.98;;;11.50;88.10;;;;;;4937863;28;20039;-62
2021/11/08 03:32:26;;;;;;;21.10;16.05;;;11.50;88.30;;;;;;4941912;28;20020;-62
2021/11/08 03:34:59;;;;;;;20.85;16.42;;;11.50;88.40;;;;;;4936797;29;20036;-62
2021/11/08 03:37:25;;;;;;;22.73;16.27;;;11.50;88.50;;;;;;4936038;29;20028;-62
2021/11/08 03:39:51;;;;;;;19.73;14.85;;;11.60;88.70;;;;;;4935095;29;20058;-62
2021/11/08 03:42:18;;;;;;;21.13;15.45;;;11.60;88.80;;;;;;4936138;29;20063;-62
2021/11/08 03:44:44;;;;;;;21.50;16.60;;;11.60;88.80;;;;;;4936354;29;20031;-62
2021/11/08 03:47:11;;;;;;;19.58;15.07;;;11.70;88.90;;;;;;4938933;28;20024;-62
2021/11/08 03:49:37;;;;;;;21.23;15.35;;;11.70;88.90;;;;;;4946793;28;20027;-62
2021/11/08 03:52:03;;;;;;;22.15;16.38;;;11.70;88.80;;;;;;4939367;29;20110;-62
2021/11/08 03:54:29;;;;;;;21.02;16.45;;;11.70;88.70;;;;;;4949043;28;20069;-62
2021/11/08 03:56:55;;;;;;;22.27;16.83;;;11.80;88.70;;;;;;4936455;29;20043;-62
2021/11/08 03:59:21;;;;;;;20.90;17.35;;;11.80;88.50;;;;;;4945819;29;20031;-62
2021/11/08 04:01:47;;;;;;;21.05;15.80;;;11.80;88.50;;;;;;4939246;28;20044;-62
2021/11/08 04:04:13;;;;;;;21.23;15.00;;;11.90;88.60;;;;;;4939325;28;20043;-62
2021/11/08 04:06:41;;;;;;;23.00;16.13;;;11.90;88.40;;;;;;4939859;28;20110;-62
2021/11/08 04:09:09;;;;;;;19.98;16.15;;;11.90;88.20;;;;;;4936124;29;20068;-62
2021/11/08 04:11:35;;;;;;;17.98;13.90;;;12.00;88.00;;;;;;4954470;29;20031;-62
2021/11/08 04:14:03;;;;;;;21.05;15.75;;;12.00;87.90;;;;;;4955038;28;20444;-62
2021/11/08 04:16:30;;;;;;;23.98;16.77;;;12.00;87.70;;;;;;4955233;28;20031;-62
2021/11/08 04:18:57;;;;;;;23.30;16.73;;;12.00;87.70;;;;;;4954997;28;20041;-62
2021/11/08 04:21:24;;;;;;;25.10;18.13;;;12.10;87.60;;;;;;4956690;28;20501;-62
2021/11/08 04:23:50;;;;;;;21.75;17.20;;;12.00;87.40;;;;;;4950238;28;20087;-62
2021/11/08 04:26:22;;;;;;;23.10;16.17;;;12.00;87.30;;;;;;4938175;28;20032;-62
2021/11/08 04:29:00;;;;;;;22.58;17.33;;;12.10;87.50;;;;;;4945462;28;20035;-62
2021/11/08 04:31:27;;;;;;;20.15;16.52;;;12.10;87.40;;;;;;4935671;29;20082;-62
2021/11/08 04:34:42;;;;;;;23.13;16.38;;;12.10;87.40;;;;;;4935875;29;20432;-62
2021/11/08 05:30:09;;;;;;;25.15;18.88;;;11.90;85.60;;;;;;4946012;28;20122;-62
2021/11/08 05:32:46;;;;;;;25.50;17.92;;;11.90;85.50;;;;;;4936998;29;20031;-62
2021/11/08 05:35:14;;;;;;;28.65;19.33;;;11.90;85.30;;;;;;4937334;29;20039;-62
2021/11/08 05:37:44;;;;;;;22.23;18.17;;;11.90;85.50;;;;;;4937602;29;20035;-62
2021/11/08 05:40:14;;;;;;;22.35;18.52;;;11.90;85.20;;;;;;4938082;29;20059;-62
2021/11/08 05:42:41;;;;;;;24.58;19.33;;;11.90;85.10;;;;;;4939055;29;20051;-62
2021/11/08 05:45:09;;;;;;;26.30;19.77;;;11.90;85.10;;;;;;4938487;29;20024;-62
2021/11/08 05:47:36;;;;;;;27.30;20.42;;;11.90;85.10;;;;;;4942335;28;20028;-62
2021/11/08 05:50:02;;;;;;;25.42;18.88;;;11.90;85.30;;;;;;4948163;29;20036;-62
2021/11/08 05:52:28;;;;;;;24.05;19.75;;;11.80;85.20;;;;;;4947142;28;20439;-62
2021/11/08 05:54:54;;;;;;;24.08;19.05;;;11.80;85.30;;;;;;4947138;28;20034;-62
2021/11/08 06:50:04;;;;;;;22.08;18.02;;;12.30;82.20;;;;;;4953343;29;20054;-62
2021/11/08 06:52:30;;;;;;;24.08;18.55;;;12.30;82.10;;;;;;4946190;29;20035;-62
2021/11/08 06:55:00;;;;;;;22.85;16.10;;;12.40;81.90;;;;;;4954383;28;20039;-62
2021/11/08 06:57:31;;;;;;;21.50;16.65;;;12.40;81.80;;;;;;4955536;28;20030;-62
2021/11/08 06:59:57;;;;;;;;;;;12.40;81.40;;;;;;4949113;28;20379;-62
2021/11/08 07:02:25;;;;;;;17.80;14.23;;;12.40;81.40;;;;;;4949652;28;19921;-62
2021/11/08 07:04:51;;;;;;;20.48;16.80;;;12.40;81.10;;;;;;4945629;28;20075;-62
2021/11/08 07:07:16;;;;;;;20.45;16.02;;;12.40;81.50;;;;;;4950665;28;20055;-62
2021/11/08 07:09:43;;;;;;;21.95;16.58;;;12.50;80.60;;;;;;4946416;28;20147;-62
2021/11/08 07:12:11;;;;;;;24.50;17.67;;;12.50;80.60;;;;;;4954525;28;20082;-62
2021/11/08 07:14:37;;;;;;;21.10;16.40;;;12.50;80.50;;;;;;4951300;28;20031;-62
2021/11/08 07:17:04;;;;;;;20.80;15.75;;;12.50;79.90;;;;;;4946813;28;20548;-62
2021/11/08 07:19:30;;;;;;;20.27;15.02;;;12.50;79.60;;;;;;4954780;28;20487;-62
2021/11/08 07:21:56;;;;;;;18.92;15.35;;;12.50;79.60;;;;;;4955664;28;20042;-62
2021/11/08 07:24:22;;;;;;;21.17;15.75;;;12.50;79.40;;;;;;4947805;28;20024;-62
2021/11/08 07:26:48;;;;;;;19.13;15.45;;;12.50;79.30;;;;;;4946281;28;20562;-62
2021/11/08 07:29:15;;;;;;;15.80;13.98;;;12.50;79.30;;;;;;4947612;28;20070;-62
2021/11/08 07:31:42;;;;;;;19.73;15.90;;;12.50;79.10;;;;;;4947079;28;20028;-62
2021/11/08 07:34:08;;;;;;;18.77;14.50;;;12.50;79.10;;;;;;4948785;28;20442;-62
2021/11/08 07:36:34;;;;;;;19.10;15.27;;;12.50;79.00;;;;;;4953750;28;20020;-62
2021/11/08 07:38:59;;;;;;;20.73;16.23;;;12.40;78.60;;;;;;4943857;28;20055;-62
2021/11/08 07:41:26;;;;;;;19.98;15.30;;;12.50;78.50;;;;;;4953031;28;20019;-62
2021/11/08 07:43:52;;;;;;;20.60;15.98;;;12.40;78.40;;;;;;4950899;28;20027;-62
2021/11/08 07:46:18;;;;;;;18.50;15.20;;;12.50;78.50;;;;;;4944782;28;20061;-62
2021/11/08 07:48:44;;;;;;;19.92;15.55;;;12.50;78.30;;;;;;4945908;28;20029;-62
2021/11/08 07:51:12;;;;;;;21.55;16.90;;;12.50;78.00;;;;;;4944880;28;20038;-62
2021/11/08 07:53:38;;;;;;;20.90;14.98;;;12.50;77.90;;;;;;4948253;29;20023;-62
2021/11/08 07:56:04;;;;;;;20.17;14.90;;;12.50;77.70;;;;;;4943536;28;20035;-62
2021/11/08 07:58:30;;;;;;;17.30;14.27;;;12.50;77.70;;;;;;4946124;29;20055;-62
2021/11/08 08:00:56;;;;;;;18.20;13.90;;;12.50;77.70;;;;;;4944787;28;20037;-62
2021/11/08 08:03:25;;;;;;;20.02;13.38;;;12.60;77.70;;;;;;4948680;28;20522;-61
2021/11/08 08:05:51;;;;;;;20.63;14.68;;;12.60;77.60;;;;;;4949613;29;20452;-62
2021/11/08 08:08:17;;;;;;;16.00;13.68;;;12.60;77.50;;;;;;4948474;28;20479;-62
2021/11/08 08:10:43;;;;;;;17.80;14.27;;;12.60;77.20;;;;;;4944484;28;20042;-62
2021/11/08 08:13:09;;;;;;;18.48;12.88;;;12.70;76.90;;;;;;4944942;28;20365;-62
2021/11/08 08:15:35;;;;;;;19.27;14.50;;;12.70;76.80;;;;;;4944857;28;20039;-62
2021/11/08 08:18:01;;;;;;;21.98;14.30;;;12.70;76.60;;;;;;4941373;29;20087;-62
2021/11/08 08:20:30;;;;;;;15.40;12.93;;;12.70;76.70;;;;;;4939831;28;20063;-62
2021/11/08 08:22:56;;;;;;;15.27;12.07;;;12.70;76.40;;;;;;4940702;29;20484;-62
2021/11/08 08:25:22;;;;;;;15.73;12.32;;;12.70;76.40;;;;;;4948389;28;20034;-62
2021/11/08 08:27:49;;;;;;;16.60;11.93;;;12.70;76.20;;;;;;4944058;28;20035;-62
2021/11/08 08:30:14;;;;;;;13.55;10.18;;;12.70;76.00;;;;;;4948374;29;20394;-62
2021/11/08 08:32:40;;;;;;;11.95;9.77;;;12.70;75.70;;;;;;4943481;28;20028;-62
2021/11/08 08:35:08;;;;;;;12.82;9.68;;;12.70;75.80;;;;;;4938529;29;20110;-62
2021/11/08 08:37:34;;;;;;;10.75;8.52;;;12.80;75.60;;;;;;4947131;28;20030;-62
2021/11/08 08:40:00;;;;;;;13.45;10.15;;;12.80;75.10;;;;;;4948854;28;20411;-62
2021/11/08 08:42:26;;;;;;;12.02;9.30;;;12.80;74.80;;;;;;4940629;28;20063;-62
2021/11/08 08:44:53;;;;;;;12.95;10.07;;;12.80;74.50;;;;;;4938377;29;20462;-62
2021/11/08 08:47:19;;;;;;;10.00;8.38;;;12.80;74.30;;;;;;4938529;28;20480;-62
2021/11/08 08:49:45;;;;;;;12.02;9.50;;;12.70;74.00;;;;;;4940266;28;20125;-62
2021/11/08 08:52:12;;;;;;;13.57;9.55;;;12.80;74.00;;;;;;4942442;28;20089;-62
2021/11/08 08:54:41;;;;;;;12.63;9.90;;;12.80;74.00;;;;;;4941489;28;20114;-62
2021/11/08 08:57:08;;;;;;;12.68;9.25;;;12.80;73.90;;;;;;4940998;28;20039;-62
2021/11/08 08:59:34;;;;;;;12.20;9.55;;;12.80;73.70;;;;;;4938579;28;20054;-62
2021/11/08 09:02:00;;;;;;;12.48;8.88;;;12.90;73.90;;;;;;4942981;28;20027;-62
2021/11/08 09:04:27;;;;;;;12.00;8.57;;;12.90;72.90;;;;;;4945989;28;20048;-62
2021/11/08 09:06:53;;;;;;;12.35;8.45;;;12.90;73.00;;;;;;4940605;28;20487;-62
2021/11/08 09:09:19;;;;;;;11.23;8.85;;;13.00;72.90;;;;;;4941037;29;20206;-62
2021/11/08 09:11:45;;;;;;;10.30;8.43;;;13.00;72.70;;;;;;4943140;28;20106;-62
2021/11/08 09:14:11;;;;;;;11.30;8.65;;;13.10;72.40;;;;;;4945866;28;20035;-62
2021/11/08 09:16:37;;;;;;;12.75;9.10;;;13.10;72.30;;;;;;4946556;29;20412;-62
2021/11/08 09:19:03;;;;;;;11.63;9.77;;;13.10;72.20;;;;;;4947601;28;20035;-62
2021/11/08 09:21:31;;;;;;;12.32;9.50;;;13.10;71.90;;;;;;4943551;28;20538;-62
2021/11/08 09:23:59;;;;;;;11.48;9.30;;;13.20;71.90;;;;;;4946337;28;20039;-62
2021/11/08 09:26:28;;;;;;;14.82;9.88;;;13.20;71.60;;;;;;4944453;28;20114;-62
2021/11/08 09:28:54;;;;;;;12.90;9.60;;;13.20;71.50;;;;;;4947468;28;20070;-62
2021/11/08 09:31:21;;;;;;;13.52;10.10;;;13.30;71.30;;;;;;4947768;28;20050;-62
2021/11/08 09:33:49;;;;;;;9.70;8.15;;;13.30;70.90;;;;;;4944988;28;20039;-62
2021/11/08 09:36:15;;;;;;;11.25;9.10;;;13.20;70.70;;;;;;4936649;28;20020;-62
2021/11/08 09:38:50;;;;;;;11.93;9.07;;;13.20;70.60;;;;;;4944607;28;20058;-62
2021/11/08 09:41:18;;;;;;;12.05;9.38;;;13.20;70.80;;;;;;4938973;28;20035;-62
2021/11/08 09:43:45;;;;;;;14.00;9.90;;;13.20;70.90;;;;;;4951624;28;20062;-62
2021/11/08 09:46:12;;;;;;;12.45;9.52;;;13.20;70.80;;;;;;4960358;28;20491;-62
2021/11/08 09:48:40;;;;;;;11.20;9.20;;;13.20;70.70;;;;;;4943811;28;20106;-62
2021/11/08 09:51:09;;;;;;;11.25;9.07;;;13.20;71.10;;;;;;4944124;29;20034;-62
2021/11/08 09:53:35;;;;;;;10.65;8.40;;;13.20;70.30;;;;;;4947045;29;20113;-62
2021/11/08 09:56:03;;;;;;;13.85;9.57;;;13.20;70.20;;;;;;4945673;29;20038;-62
2021/11/08 09:58:29;;;;;;;13.30;9.93;;;13.10;71.10;;;;;;4945733;28;20118;-62
2021/11/08 10:00:56;;;;;;;13.32;10.20;;;13.20;70.80;;;;;;4947786;28;20122;-62
2021/11/08 10:03:29;;;;;;;15.73;10.02;;;13.20;70.60;;;;;;4951237;28;20110;-62
2021/11/08 10:05:57;;;;;;;14.23;10.48;;;13.20;70.40;;;;;;4949832;29;20121;-62
2021/11/08 10:08:26;;;;;;;12.98;9.93;;;13.30;70.50;;;;;;4943963;28;20031;-62
2021/11/08 10:10:54;;;;;;;14.98;10.60;;;13.30;70.30;;;;;;4948407;28;20027;-62
2021/11/08 10:13:24;;;;;;;14.30;10.38;;;13.40;70.00;;;;;;4942866;29;20074;-62
2021/11/08 10:15:55;;;;;;;13.00;10.88;;;13.40;70.10;;;;;;4947343;28;20029;-62
2021/11/08 10:18:23;;;;;;;16.42;9.93;;;13.30;70.00;;;;;;4945465;28;21909;-62
2021/11/08 10:20:53;;;;;;;14.40;10.75;;;13.30;70.00;;;;;;4949390;28;20127;-62
2021/11/08 10:23:22;;;;;;;13.10;9.90;;;13.30;70.00;;;;;;4946230;28;20055;-62
2021/11/08 10:25:48;;;;;;;12.23;9.43;;;13.30;70.00;;;;;;4943571;29;20031;-62
2021/11/08 10:28:17;;;;;;;11.18;8.57;;;13.30;69.70;;;;;;4946821;28;20036;-62
2021/11/08 10:30:45;;;;;;;11.40;9.00;;;13.30;69.50;;;;;;4944451;29;20032;-62
2021/11/08 10:33:21;;;;;;;11.43;8.15;;;13.30;69.30;;;;;;4945626;29;20035;-62
2021/11/08 10:35:48;;;;;;;11.80;8.65;;;13.30;69.70;;;;;;4948905;28;20120;-62
2021/11/08 10:38:18;;;;;;;11.13;8.13;;;13.30;68.90;;;;;;4941634;28;20035;-62
2021/11/08 10:40:47;;;;;;;12.02;9.23;;;13.30;69.10;;;;;;4950436;29;20078;-62
2021/11/08 10:43:22;;;;;;;12.68;9.75;;;13.30;69.20;;;;;;4943186;28;20063;-62
2021/11/08 10:45:52;;;;;;;12.27;9.70;;;13.30;69.20;;;;;;4948967;29;20027;-62
2021/11/08 10:48:24;;;;;;;13.13;8.98;;;13.40;69.30;;;;;;4943718;28;20082;-62
2021/11/08 10:50:52;;;;;;;12.18;8.20;;;13.40;69.00;;;;;;4943533;28;20035;-62
2021/11/08 10:53:18;;;;;;;11.23;8.70;;;13.50;68.60;;;;;;4947312;28;20110;-62
2021/11/08 10:55:55;;;;;;;11.70;9.02;;;13.50;68.40;;;;;;4950823;28;20031;-62
2021/11/08 10:58:22;;;;;;;12.60;9.23;;;13.50;68.40;;;;;;4940118;28;20034;-62
2021/11/08 11:00:52;;;;;;;10.18;8.38;;;13.60;68.50;;;;;;4940466;28;20024;-62
2021/11/08 11:03:19;;;;;;;10.70;8.40;;;13.60;68.30;;;;;;4945863;28;20068;-62
2021/11/08 11:05:46;;;;;;;9.90;8.20;;;13.60;68.20;;;;;;4948129;28;20035;-62
2021/11/08 11:08:15;;;;;;;12.55;8.48;;;13.70;68.10;;;;;;4954874;28;20070;-62
2021/11/08 11:10:52;;;;;;;10.23;7.72;;;13.70;68.10;;;;;;4951515;28;20035;-62
2021/11/08 11:13:22;;;;;;;10.40;8.07;;;13.60;67.90;;;;;;4949513;28;20486;-62
2021/11/08 11:15:49;;;;;;;13.18;8.15;;;13.60;67.80;;;;;;4948004;28;20035;-62
2021/11/08 11:18:17;;;;;;;10.50;8.70;;;13.70;67.90;;;;;;4949835;28;20063;-62
2021/11/08 11:20:45;;;;;;;12.48;8.25;;;13.70;67.90;;;;;;4949855;28;20448;-62
2021/11/08 11:23:24;;;;;;;11.45;8.75;;;13.70;67.90;;;;;;4951635;28;20090;-62
2021/11/08 11:25:54;;;;;;;10.30;7.93;;;13.70;68.00;;;;;;4946681;28;20023;-62
2021/11/08 11:28:35;;;;;;;10.93;7.90;;;13.70;67.70;;;;;;4956570;28;20059;-62
2021/11/08 11:31:09;;;;;;;11.20;8.85;;;13.70;67.50;;;;;;4952245;28;20035;-62
2021/11/08 11:33:34;;;;;;;9.23;7.78;;;13.70;67.50;;;;;;4952974;28;20030;-62
2021/11/08 11:36:07;;;;;;;10.35;7.40;;;13.70;67.40;;;;;;4943003;28;20031;-62
2021/11/08 11:38:55;;;;;;;8.32;6.85;;;13.60;67.30;;;;;;4955771;28;20109;-62
2021/11/08 11:41:29;;;;;;;9.65;6.93;;;13.60;67.30;;;;;;4946341;28;20070;-62
2021/11/08 11:44:04;;;;;;;10.50;7.25;;;13.60;67.20;;;;;;4954203;28;20075;-62
2021/11/08 11:46:33;;;;;;;9.20;7.20;;;13.60;67.10;;;;;;4948747;28;20032;-62
2021/11/08 11:49:03;;;;;;;9.23;7.35;;;13.50;67.10;;;;;;4950706;28;20035;-62
2021/11/08 11:51:32;;;;;;;9.20;7.30;;;13.50;67.40;;;;;;4945267;28;20043;-62
2021/11/08 11:53:58;;;;;;;9.38;7.03;;;13.50;67.20;;;;;;4951928;28;20110;-62
2021/11/08 11:56:25;;;;;;;10.52;7.30;;;13.50;67.20;;;;;;4949578;28;20388;-62
2021/11/08 11:58:52;;;;;;;8.18;6.15;;;13.50;67.10;;;;;;4952824;28;20110;-62
2021/11/08 12:01:20;;;;;;;7.80;6.28;;;13.50;66.90;;;;;;4946171;28;20023;-62
2021/11/08 12:03:48;;;;;;;8.73;6.65;;;13.40;66.80;;;;;;4947275;28;20039;-62
2021/11/08 12:06:23;;;;;;;8.80;6.50;;;13.40;66.70;;;;;;4941966;28;20035;-62
2021/11/08 12:08:55;;;;;;;8.85;6.57;;;13.40;66.90;;;;;;4942466;28;20031;-62
2021/11/08 12:11:30;;;;;;;9.55;6.68;;;13.30;66.90;;;;;;4945990;28;20027;-62
2021/11/08 12:14:03;;;;;;;7.75;6.45;;;13.30;67.00;;;;;;4943512;29;20669;-62
2021/11/08 12:16:29;;;;;;;8.07;6.15;;;13.30;67.10;;;;;;4946642;29;20035;-62
2021/11/08 12:19:00;;;;;;;9.27;7.03;;;13.30;67.20;;;;;;4943316;28;20028;-62
2021/11/08 12:21:31;;;;;;;8.00;6.40;;;13.30;67.10;;;;;;4941240;28;20063;-62
2021/11/08 12:23:59;;;;;;;8.25;6.32;;;13.30;67.20;;;;;;4946239;28;20038;-62
2021/11/08 12:26:31;;;;;;;9.20;5.70;;;13.20;67.10;;;;;;4962381;28;20026;-62
2021/11/08 12:29:23;;;;;;;8.93;5.75;;;13.20;66.90;;;;;;4949046;28;20383;-62
2021/11/08 12:32:11;;;;;;;8.48;6.55;;;13.10;66.70;;;;;;4945908;28;20039;-62
2021/11/08 12:34:46;;;;;;;7.40;6.35;;;13.00;66.90;;;;;;4947502;28;20031;-62
2021/11/08 12:37:13;;;;;;;9.02;6.85;;;13.00;67.00;;;;;;4950161;28;20464;-62
2021/11/08 12:39:41;;;;;;;8.38;6.78;;;12.90;67.00;;;;;;4951958;28;20051;-62
2021/11/08 12:42:10;;;;;;;10.18;6.97;;;12.90;67.00;;;;;;4948217;28;20038;-62
2021/11/08 12:44:44;;;;;;;9.25;6.43;;;12.90;67.30;;;;;;4944859;28;20042;-62
2021/11/08 12:47:12;;;;;;;8.25;6.20;;;12.90;67.10;;;;;;4943008;28;20027;-62
2021/11/08 12:49:49;;;;;;;9.15;6.45;;;12.80;67.10;;;;;;4949702;28;20381;-62
2021/11/08 12:52:18;;;;;;;9.73;6.70;;;12.80;67.10;;;;;;4948658;28;20031;-62
2021/11/08 12:55:05;;;;;;;8.48;6.60;;;12.80;67.30;;;;;;4947901;28;20035;-62
2021/11/08 12:57:33;;;;;;;8.35;6.38;;;12.80;67.30;;;;;;4951622;28;20047;-62
2021/11/08 13:00:16;;;;;;;8.13;6.70;;;12.80;67.40;;;;;;4947450;29;20491;-62
2021/11/08 13:02:53;;;;;;;9.18;6.50;;;12.80;67.50;;;;;;4948518;28;20053;-62
2021/11/08 13:05:31;;;;;;;9.57;7.80;;;12.90;67.60;;;;;;4947498;29;20506;-62
2021/11/08 13:07:59;;;;;;;10.25;7.70;;;12.90;67.30;;;;;;4936691;28;20427;-62
2021/11/08 13:10:35;;;;;;;10.95;7.93;;;12.90;67.60;;;;;;4940689;28;20027;-62
2021/11/08 13:13:03;;;;;;;10.85;7.80;;;12.90;67.50;;;;;;4943988;28;20067;-62
2021/11/08 13:15:31;;;;;;;10.60;8.38;;;12.90;67.50;;;;;;4946841;28;20303;-62
2021/11/08 13:18:08;;;;;;;10.75;7.60;;;12.90;67.30;;;;;;4950574;28;20051;-62
2021/11/08 13:20:42;;;;;;;10.38;8.10;;;12.90;67.50;;;;;;4941436;28;20066;-62
2021/11/08 13:23:19;;;;;;;11.15;7.93;;;12.90;67.40;;;;;;4946375;29;20037;-62
2021/11/08 13:25:49;;;;;;;12.93;8.65;;;12.90;67.40;;;;;;4954154;28;20031;-62
2021/11/08 13:28:19;;;;;;;11.70;9.05;;;12.90;67.50;;;;;;4960691;28;20034;-61
2021/11/08 13:30:50;;;;;;;12.77;8.70;;;12.90;67.50;;;;;;4948750;28;20035;-62
2021/11/08 13:33:22;;;;;;;12.27;9.23;;;12.90;67.30;;;;;;4949012;28;20499;-62
2021/11/08 13:35:48;;;;;;;13.38;9.45;;;12.90;67.50;;;;;;4956672;28;20125;-62
2021/11/08 13:38:45;;;;;;;11.30;8.32;;;12.90;67.40;;;;;;4951316;28;20035;-62
2021/11/08 13:41:18;;;;;;;11.70;9.18;;;12.90;67.40;;;;;;4951915;28;20043;-62
2021/11/08 13:43:51;;;;;;;12.45;8.27;;;12.80;67.40;;;;;;4948021;28;20023;-62
2021/11/08 13:46:24;;;;;;;12.32;9.48;;;12.80;67.50;;;;;;4952158;28;20035;-62
2021/11/08 13:48:55;;;;;;;13.82;10.10;;;12.80;67.50;;;;;;4950030;29;20030;-62
2021/11/08 13:51:33;;;;;;;12.00;10.00;;;12.80;68.30;;;;;;4953152;28;20415;-62
2021/11/08 13:54:13;;;;;;;11.93;9.70;;;12.70;67.70;;;;;;4952171;28;20038;-62
2021/11/08 13:56:51;;;;;;;12.10;9.52;;;12.70;67.90;;;;;;4945556;29;20487;-62
2021/11/08 13:59:31;;;;;;;12.77;9.38;;;12.80;67.80;;;;;;4944780;28;20027;-62
2021/11/08 14:02:16;;;;;;;17.85;10.85;;;12.80;67.80;;;;;;4950028;28;20471;-62
2021/11/08 14:04:45;;;;;;;12.52;10.18;;;12.80;67.90;;;;;;4948818;28;20039;-62
2021/11/08 14:07:12;;;;;;;11.63;9.25;;;12.80;67.80;;;;;;4944985;28;20039;-62
2021/11/08 14:09:41;;;;;;;13.68;9.77;;;12.80;67.80;;;;;;4951495;28;20035;-62
2021/11/08 14:12:10;;;;;;;13.20;10.15;;;12.80;67.70;;;;;;4949202;28;20035;-62
2021/11/08 14:14:38;;;;;;;9.00;7.32;;;12.80;67.60;;;;;;4947159;29;20034;-62
2021/11/08 14:17:24;;;;;;;13.18;8.55;;;12.80;67.20;;;;;;4946531;28;20031;-62
2021/11/08 14:20:11;;;;;;;8.20;6.60;;;12.80;67.00;;;;;;4939753;29;20175;-62
2021/11/08 14:22:40;;;;;;;10.23;7.82;;;12.70;67.00;;;;;;4938705;29;20054;-62
2021/11/08 14:25:10;;;;;;;9.75;7.15;;;12.70;66.80;;;;;;4934638;29;20063;-62
2021/11/08 14:27:40;;;;;;;11.75;7.80;;;12.70;66.70;;;;;;4947517;29;20065;-62
2021/11/08 14:30:11;;;;;;;10.00;7.93;;;12.60;66.40;;;;;;4943869;28;20110;-62
2021/11/08 14:32:36;;;;;;;12.45;8.10;;;12.60;65.90;;;;;;4950772;28;20039;-62
2021/11/08 14:35:12;;;;;;;10.43;7.07;;;12.50;65.80;;;;;;4943147;28;20353;-62
2021/11/08 14:37:46;;;;;;;10.43;7.90;;;12.50;65.80;;;;;;4947655;29;20024;-62
2021/11/08 14:40:22;;;;;;;12.35;7.78;;;12.50;65.80;;;;;;4945856;29;20051;-62